Time;durP1;ratioP1;P1;durP2;ratioP2;P2;SDS_P1;SDS_P2;PMS_P1;PMS_P2;Temp;Humidity;BMP_temperature;BMP_pressure;BME280_temperature;BME280_humidity;BME280_pressure;Samples;Min_cycle;Max_cycle;Signal;HPM_P1;HPM_P2
2021/05/23 00:02:22;;;;;;;5.63;1.17;;;;;;;12.45;78.31;100018.59;5073012;28;20377;-72
2021/05/23 00:04:48;;;;;;;5.93;1.20;;;;;;;12.52;78.11;100021.28;5052231;28;20037;-72
2021/05/23 00:07:14;;;;;;;2.83;1.00;;;;;;;12.51;77.59;100014.34;5058753;28;20358;-72
2021/05/23 00:09:41;;;;;;;2.08;1.15;;;;;;;12.43;77.76;100015.50;5068588;28;20062;-72
2021/05/23 00:12:10;;;;;;;7.88;1.25;;;;;;;12.34;78.29;100020.50;5062712;28;20039;-72
2021/05/23 00:14:35;;;;;;;2.67;1.27;;;;;;;12.45;78.57;100023.97;5050265;28;20086;-72
2021/05/23 00:17:01;;;;;;;4.15;1.20;;;;;;;12.41;78.69;100031.31;5070011;28;20074;-72
2021/05/23 00:19:26;;;;;;;3.13;1.10;;;;;;;12.39;78.68;100030.13;5069548;28;20025;-72
2021/05/23 00:21:52;;;;;;;6.78;1.20;;;;;;;12.43;79.07;100031.69;5064691;28;20036;-72
2021/05/23 00:24:17;;;;;;;3.08;1.30;;;;;;;12.50;78.88;100020.91;5070434;28;20028;-73
2021/05/23 00:26:43;;;;;;;6.13;1.27;;;;;;;12.49;79.00;100030.16;5069920;28;20033;-73
2021/05/23 00:29:09;;;;;;;4.00;1.23;;;;;;;12.33;79.40;100037.06;5069630;28;20496;-73
2021/05/23 00:31:34;;;;;;;1.88;1.27;;;;;;;12.42;79.24;100030.16;5050307;28;20031;-72
2021/05/23 00:34:00;;;;;;;5.50;1.20;;;;;;;12.49;78.12;100038.25;5060412;28;20111;-72
2021/05/23 00:36:26;;;;;;;5.15;1.20;;;;;;;12.35;78.89;100032.81;5057482;28;20033;-72
2021/05/23 00:38:51;;;;;;;2.58;1.10;;;;;;;12.31;79.10;100037.44;5070046;28;20074;-72
2021/05/23 00:41:17;;;;;;;2.58;1.00;;;;;;;12.30;79.60;100038.59;5065813;28;20035;-72
2021/05/23 00:43:43;;;;;;;3.38;1.10;;;;;;;12.28;79.58;100027.41;5051728;28;20115;-72
2021/05/23 00:46:08;;;;;;;1.95;1.27;;;;;;;12.41;78.86;100041.31;5065063;28;20135;-72
2021/05/23 00:48:34;;;;;;;4.60;1.40;;;;;;;12.36;79.22;100037.09;5054983;28;20058;-72
2021/05/23 00:50:59;;;;;;;5.13;1.30;;;;;;;12.39;79.78;100040.94;5072367;28;20516;-72
2021/05/23 00:53:25;;;;;;;3.58;1.50;;;;;;;12.43;79.74;100053.28;5072593;28;20028;-72
2021/05/23 00:55:50;;;;;;;4.38;1.20;;;;;;;12.39;79.56;100044.41;5069385;28;20150;-72
2021/05/23 00:58:18;;;;;;;3.97;1.60;;;;;;;12.37;79.44;100052.13;5074415;28;20043;-72
2021/05/23 01:00:47;;;;;;;4.93;1.20;;;;;;;12.36;79.81;100044.41;5067112;28;20024;-72
2021/05/23 01:03:25;;;;;;;9.93;1.60;;;;;;;12.33;79.42;100058.69;5039729;28;20025;-72
2021/05/23 01:05:52;;;;;;;6.55;1.40;;;;;;;12.38;79.51;100050.19;5076601;28;20016;-73
2021/05/23 01:08:18;;;;;;;6.25;1.65;;;;;;;12.39;79.65;100051.72;5064950;28;20119;-73
2021/05/23 01:10:52;;;;;;;8.88;1.40;;;;;;;12.36;78.92;100053.28;5071566;28;20140;-72
2021/05/23 01:13:44;;;;;;;5.38;1.58;;;;;;;12.31;79.27;100050.94;5051096;28;20034;-72
2021/05/23 01:16:21;;;;;;;6.40;1.63;;;;;;;12.35;79.28;100057.13;5032627;28;20040;-72
2021/05/23 01:19:10;;;;;;;6.88;1.50;;;;;;;12.39;79.70;100054.44;5042555;28;20400;-72
2021/05/23 01:21:39;;;;;;;2.88;1.50;;;;;;;12.44;79.26;100054.84;5060550;28;20044;-72
2021/05/23 01:24:10;;;;;;;5.03;1.35;;;;;;;12.36;80.09;100058.69;5073447;28;20051;-72
2021/05/23 01:26:38;;;;;;;3.97;1.50;;;;;;;12.35;80.21;100062.53;5073095;28;20028;-72
2021/05/23 01:29:07;;;;;;;7.93;1.40;;;;;;;12.33;80.49;100074.88;5072360;28;20036;-72
2021/05/23 01:31:34;;;;;;;4.07;1.50;;;;;;;12.24;80.63;100069.81;5068480;28;20036;-72
2021/05/23 01:34:00;;;;;;;4.22;1.42;;;;;;;12.28;80.55;100057.09;5077184;28;20040;-72
2021/05/23 01:36:32;;;;;;;4.93;1.45;;;;;;;12.28;80.60;100076.00;5066906;28;20059;-72
2021/05/23 01:39:06;;;;;;;5.35;1.60;;;;;;;12.32;80.00;100071.41;5054723;28;20048;-72
2021/05/23 01:41:32;;;;;;;4.25;1.25;;;;;;;12.36;79.48;100069.50;5078195;28;20067;-72
2021/05/23 01:43:59;;;;;;;4.03;1.40;;;;;;;12.26;80.12;100072.13;5054511;28;20028;-73
2021/05/23 01:46:25;;;;;;;5.13;1.40;;;;;;;12.27;79.67;100069.03;5054324;28;20070;-73
2021/05/23 01:48:51;;;;;;;4.00;1.58;;;;;;;12.32;79.76;100068.69;5067672;28;20040;-73
2021/05/23 01:51:16;;;;;;;5.38;1.50;;;;;;;12.13;79.99;100073.63;5083950;28;20028;-72
2021/05/23 01:53:42;;;;;;;3.80;1.40;;;;;;;12.15;80.27;100069.41;5054578;28;20047;-73
2021/05/23 01:56:09;;;;;;;4.32;1.13;;;;;;;12.31;79.39;100066.38;5072482;28;20036;-73
2021/05/23 01:58:35;;;;;;;5.03;1.40;;;;;;;12.18;78.92;100063.22;5052712;28;20043;-73
2021/05/23 02:01:02;;;;;;;5.32;1.50;;;;;;;12.18;79.02;100063.22;5053431;28;20381;-73
2021/05/23 02:03:30;;;;;;;5.43;1.33;;;;;;;11.99;79.79;100071.63;5055124;28;20036;-73
2021/05/23 02:05:59;;;;;;;4.60;1.25;;;;;;;12.19;79.21;100077.50;5065040;28;20021;-73
2021/05/23 02:08:26;;;;;;;5.53;1.38;;;;;;;12.14;78.92;100075.16;5063701;28;20047;-73
2021/05/23 02:10:54;;;;;;;2.95;1.20;;;;;;;12.21;78.90;100083.31;5049849;28;20047;-73
2021/05/23 02:13:21;;;;;;;1.95;1.30;;;;;;;12.04;79.55;100075.91;5072113;28;20516;-73
2021/05/23 02:15:47;;;;;;;4.57;1.50;;;;;;;12.08;78.80;100080.16;5071672;28;20032;-72
2021/05/23 02:18:13;;;;;;;3.45;1.33;;;;;;;12.05;79.30;100086.31;5045243;28;20032;-73
2021/05/23 02:20:39;;;;;;;1.40;1.25;;;;;;;11.99;79.66;100079.72;5063055;28;20601;-73
2021/05/23 02:23:11;;;;;;;7.57;1.42;;;;;;;12.13;78.71;100076.31;5069429;28;20058;-73
2021/05/23 02:25:36;;;;;;;2.42;1.20;;;;;;;12.10;79.30;100075.16;5066421;28;20056;-73
2021/05/23 02:28:05;;;;;;;3.78;1.40;;;;;;;12.09;78.97;100086.34;5070589;28;20044;-73
2021/05/23 02:30:39;;;;;;;6.65;1.55;;;;;;;12.04;78.47;100079.34;5052497;28;20040;-73
2021/05/23 02:33:07;;;;;;;6.55;1.70;;;;;;;12.09;78.40;100081.72;5066033;28;20403;-73
2021/05/23 02:35:34;;;;;;;11.57;1.42;;;;;;;12.19;78.02;100078.28;5072271;22;20126;-73
2021/05/23 02:38:03;;;;;;;4.88;1.48;;;;;;;12.02;79.61;100091.72;5068051;28;20385;-73
2021/05/23 02:40:29;;;;;;;5.30;1.67;;;;;;;11.93;79.60;100083.94;5071318;28;20392;-73
2021/05/23 02:42:58;;;;;;;5.40;1.40;;;;;;;11.83;80.93;100089.28;5072035;28;20078;-74
2021/05/23 02:45:26;;;;;;;4.28;1.80;;;;;;;12.04;80.22;100092.09;5067391;28;20016;-73
2021/05/23 02:47:53;;;;;;;7.93;1.48;;;;;;;11.92;80.99;100093.19;5071449;28;20456;-73
2021/05/23 02:50:25;;;;;;;3.90;1.50;;;;;;;11.90;80.96;100102.81;5053443;28;20037;-73
2021/05/23 02:52:51;;;;;;;4.25;1.40;;;;;;;11.86;81.20;100100.09;5060953;28;20059;-73
2021/05/23 02:55:17;;;;;;;6.90;1.40;;;;;;;11.85;81.65;100106.63;5064349;28;20057;-73
2021/05/23 02:57:44;;;;;;;4.57;1.40;;;;;;;12.00;80.54;100112.91;5060015;28;20039;-73
2021/05/23 03:00:15;;;;;;;4.45;1.42;;;;;;;11.97;81.10;100102.84;5067828;28;20081;-74
2021/05/23 03:02:42;;;;;;;6.22;1.45;;;;;;;12.09;80.63;100111.41;5062442;28;20401;-74
2021/05/23 03:05:10;;;;;;;5.18;1.52;;;;;;;11.96;81.55;100114.78;5061279;28;20029;-73
2021/05/23 03:07:38;;;;;;;9.18;1.50;;;;;;;12.02;81.28;100108.66;5056372;28;20111;-74
2021/05/23 03:10:06;;;;;;;4.90;1.70;;;;;;;11.96;81.22;100117.50;5069925;28;20070;-73
2021/05/23 03:12:32;;;;;;;5.95;1.67;;;;;;;11.96;81.79;100128.28;5065498;28;20036;-73
2021/05/23 03:14:57;;;;;;;5.97;1.90;;;;;;;11.95;82.04;100130.22;5071490;28;20034;-73
2021/05/23 03:17:23;;;;;;;6.18;1.83;;;;;;;12.00;81.92;100131.78;5065900;28;20025;-73
2021/05/23 03:19:48;;;;;;;6.05;1.45;;;;;;;11.81;82.31;100132.81;5069739;28;20514;-73
2021/05/23 03:22:14;;;;;;;7.18;1.70;;;;;;;12.03;82.05;100141.81;5070975;28;20449;-73
2021/05/23 03:24:39;;;;;;;3.95;1.30;;;;;;;12.00;81.86;100142.56;5064032;28;20439;-73
2021/05/23 03:27:05;;;;;;;7.47;1.92;;;;;;;11.89;82.66;100144.41;5056450;28;20016;-73
2021/05/23 03:29:30;;;;;;;9.13;1.92;;;;;;;11.92;82.63;100141.75;5055475;28;20518;-73
2021/05/23 03:31:56;;;;;;;5.70;1.77;;;;;;;11.80;83.03;100160.94;5046927;28;20036;-74
2021/05/23 03:34:22;;;;;;;5.68;1.73;;;;;;;11.82;83.96;100153.25;5063640;28;20029;-73
2021/05/23 03:36:48;;;;;;;4.47;2.00;;;;;;;11.92;83.13;100157.97;5070573;28;20035;-74
2021/05/23 03:39:13;;;;;;;5.65;1.73;;;;;;;11.88;83.92;100162.56;5060013;28;20033;-73
2021/05/23 03:41:39;;;;;;;6.00;1.77;;;;;;;11.56;85.14;100170.34;5067612;28;20033;-73
2021/05/23 03:44:04;;;;;;;6.78;1.60;;;;;;;11.73;84.99;100166.28;5070773;28;20028;-74
2021/05/23 03:46:30;;;;;;;5.22;1.60;;;;;;;11.65;85.06;100176.22;5070641;28;20085;-73
2021/05/23 03:48:55;;;;;;;6.15;2.03;;;;;;;11.64;85.12;100168.50;5070965;28;20037;-73
2021/05/23 03:51:21;;;;;;;5.15;1.80;;;;;;;11.83;84.40;100170.97;5049504;28;20535;-74
2021/05/23 03:53:46;;;;;;;4.30;1.88;;;;;;;11.75;84.00;100180.94;5069993;28;20454;-73
2021/05/23 03:56:12;;;;;;;5.10;1.75;;;;;;;11.53;86.08;100167.63;5067091;28;20082;-73
2021/05/23 03:58:37;;;;;;;6.55;1.92;;;;;;;11.37;87.14;100177.88;5061471;28;21729;-73
2021/05/23 04:01:03;;;;;;;6.00;1.70;;;;;;;11.32;87.57;100189.03;5060824;28;20408;-73
2021/05/23 04:03:29;;;;;;;7.38;1.70;;;;;;;11.42;87.27;100188.34;5070624;28;20036;-73
2021/05/23 04:05:57;;;;;;;6.20;1.88;;;;;;;11.59;85.48;100191.19;5064373;28;20053;-73
2021/05/23 04:08:23;;;;;;;4.88;1.70;;;;;;;11.55;85.84;100186.91;5056122;28;20072;-73
2021/05/23 04:10:55;;;;;;;3.70;1.92;;;;;;;11.50;85.94;100189.94;5046682;28;20653;-74
2021/05/23 04:13:23;;;;;;;10.27;2.17;;;;;;;11.57;85.29;100198.88;5046911;28;20044;-73
2021/05/23 04:15:48;;;;;;;6.32;2.15;;;;;;;11.46;86.74;100205.31;5045505;28;20021;-73
2021/05/23 04:18:14;;;;;;;6.25;1.98;;;;;;;11.33;87.04;100206.72;5070301;28;20044;-74
2021/05/23 04:20:39;;;;;;;6.45;2.00;;;;;;;11.35;87.43;100209.81;5061408;28;20037;-73
2021/05/23 04:23:05;;;;;;;10.40;1.60;;;;;;;11.38;88.20;100201.03;5071784;28;20082;-73
2021/05/23 04:25:31;;;;;;;7.47;2.30;;;;;;;11.42;87.64;100212.63;5070851;28;20048;-73
2021/05/23 04:27:56;;;;;;;3.72;1.88;;;;;;;11.71;85.16;100209.81;5074655;28;20067;-74
2021/05/23 04:30:25;;;;;;;9.20;1.98;;;;;;;11.58;86.03;100213.13;5069896;28;20392;-75
2021/05/23 04:32:51;;;;;;;4.97;1.77;;;;;;;11.67;85.79;100214.41;5068510;28;20037;-74
2021/05/23 04:35:17;;;;;;;4.90;1.80;;;;;;;11.70;85.08;100223.69;5070615;28;20102;-73
2021/05/23 04:37:44;;;;;;;8.57;2.05;;;;;;;11.68;86.31;100223.28;5072190;28;20039;-73
2021/05/23 04:40:11;;;;;;;8.15;2.05;;;;;;;11.70;85.94;100231.78;5062538;28;20086;-73
2021/05/23 04:42:37;;;;;;;5.25;1.58;;;;;;;11.69;86.68;100225.59;5064796;28;20036;-73
2021/05/23 04:45:05;;;;;;;9.93;1.90;;;;;;;11.82;85.80;100223.41;5069811;28;20481;-74
2021/05/23 04:47:30;;;;;;;10.00;1.65;;;;;;;12.05;84.54;100232.06;5066670;28;20113;-73
2021/05/23 04:49:56;;;;;;;6.60;2.00;;;;;;;11.81;85.70;100238.03;5058495;28;20095;-73
2021/05/23 04:52:21;;;;;;;8.82;2.05;;;;;;;11.79;84.47;100237.63;5052927;28;20039;-73
2021/05/23 04:54:47;;;;;;;7.70;1.95;;;;;;;11.84;84.60;100241.91;5070667;28;20040;-74
2021/05/23 04:57:12;;;;;;;7.68;1.80;;;;;;;11.94;84.72;100238.53;5067506;28;20047;-73
2021/05/23 04:59:38;;;;;;;6.88;1.63;;;;;;;12.11;83.99;100249.47;5065658;28;20033;-73
2021/05/23 05:02:03;;;;;;;7.97;1.60;;;;;;;12.23;82.69;100248.38;5070648;28;20033;-74
2021/05/23 05:04:30;;;;;;;5.88;2.65;;;;;;;12.40;80.82;100247.72;5073694;28;20021;-73
2021/05/23 05:06:55;;;;;;;8.15;1.90;;;;;;;12.30;80.60;100253.81;5060756;28;20493;-74
2021/05/23 05:09:21;;;;;;;9.48;1.98;;;;;;;12.35;80.50;100253.50;5063506;28;20035;-73
2021/05/23 05:11:47;;;;;;;9.38;1.70;;;;;;;12.33;79.97;100258.47;5069873;28;20028;-73
2021/05/23 05:14:13;;;;;;;9.88;1.80;;;;;;;12.22;80.53;100261.09;5065505;28;20032;-73
2021/05/23 05:16:40;;;;;;;7.28;1.75;;;;;;;12.32;80.96;100263.09;5072475;28;20107;-74
2021/05/23 05:19:06;;;;;;;10.75;1.80;;;;;;;12.33;81.57;100270.03;5072918;28;20047;-73
2021/05/23 05:21:32;;;;;;;5.13;1.60;;;;;;;12.68;80.58;100277.59;5055582;28;20032;-73
2021/05/23 05:23:58;;;;;;;9.07;1.65;;;;;;;12.86;78.21;100272.28;5049268;28;20082;-73
2021/05/23 05:26:23;;;;;;;7.00;1.65;;;;;;;13.07;77.53;100269.69;5070255;28;20654;-73
2021/05/23 05:28:49;;;;;;;9.43;1.75;;;;;;;13.47;76.68;100282.97;5067750;28;20043;-74
2021/05/23 05:31:15;;;;;;;4.75;1.35;;;;;;;13.70;75.74;100283.41;5071947;28;20020;-73
2021/05/23 05:33:40;;;;;;;10.88;1.75;;;;;;;14.14;73.29;100289.22;5063084;28;20370;-74
2021/05/23 05:36:06;;;;;;;4.07;1.33;;;;;;;14.48;71.23;100289.59;5064087;28;20084;-73
2021/05/23 05:38:31;;;;;;;5.70;1.73;;;;;;;14.59;70.62;100298.50;5054587;28;20055;-73
2021/05/23 05:40:57;;;;;;;13.60;1.45;;;;;;;14.92;69.04;100294.56;5070837;28;20028;-74
2021/05/23 05:43:23;;;;;;;7.32;1.67;;;;;;;14.90;68.20;100296.88;5069664;28;20048;-73
2021/05/23 05:45:48;;;;;;;7.22;1.50;;;;;;;14.90;67.74;100288.75;5054263;28;20403;-75
2021/05/23 05:48:14;;;;;;;10.35;1.98;;;;;;;14.94;68.64;100290.25;5065630;28;20117;-73
2021/05/23 05:50:40;;;;;;;4.43;1.30;;;;;;;14.93;68.70;100294.16;5062402;28;20052;-73
2021/05/23 05:53:05;;;;;;;9.18;1.52;;;;;;;15.10;68.74;100290.59;5071128;28;20032;-74
2021/05/23 05:55:31;;;;;;;5.18;1.40;;;;;;;15.13;67.94;100289.06;5068347;28;20505;-75
2021/05/23 05:57:56;;;;;;;9.43;1.38;;;;;;;14.97;67.23;100299.56;5060893;28;20115;-73
2021/05/23 06:00:22;;;;;;;7.35;1.65;;;;;;;15.02;67.37;100304.59;5064485;28;20069;-74
2021/05/23 06:02:47;;;;;;;5.22;1.38;;;;;;;14.98;68.83;100301.88;5064785;28;20025;-74
2021/05/23 06:05:13;;;;;;;5.00;1.58;;;;;;;15.24;68.18;100306.03;5054177;28;20504;-73
2021/05/23 06:07:39;;;;;;;9.52;1.40;;;;;;;15.27;66.38;100310.69;5053313;28;20036;-73
2021/05/23 06:10:05;;;;;;;9.75;1.98;;;;;;;15.37;65.98;100304.44;5058406;28;20489;-73
2021/05/23 06:12:31;;;;;;;5.97;1.48;;;;;;;15.41;66.10;100307.91;5054381;28;20028;-74
2021/05/23 06:14:56;;;;;;;6.15;1.75;;;;;;;15.30;66.24;100320.75;5069052;28;20425;-74
2021/05/23 06:17:22;;;;;;;5.13;1.48;;;;;;;15.21;67.34;100315.72;5062680;28;20121;-75
2021/05/23 06:19:47;;;;;;;9.43;1.90;;;;;;;15.08;66.64;100314.63;5064185;28;20040;-73
2021/05/23 06:22:14;;;;;;;9.65;1.77;;;;;;;15.31;65.60;100311.47;5058789;28;20027;-74
2021/05/23 06:24:39;;;;;;;12.13;1.33;;;;;;;15.49;64.99;100325.72;5066269;28;20510;-73
2021/05/23 06:27:05;;;;;;;11.65;1.48;;;;;;;15.47;65.00;100327.28;5055785;28;20017;-74
2021/05/23 06:29:31;;;;;;;8.20;1.45;;;;;;;15.52;65.68;100330.38;5070115;28;20299;-74
2021/05/23 06:31:56;;;;;;;6.75;1.45;;;;;;;15.57;64.50;100338.09;5067831;28;20480;-74
2021/05/23 06:34:21;;;;;;;4.72;1.48;;;;;;;15.44;63.66;100342.44;5063133;28;20024;-74
2021/05/23 06:36:47;;;;;;;11.05;1.42;;;;;;;15.26;65.20;100339.75;5062684;28;20028;-74
2021/05/23 06:39:12;;;;;;;7.75;1.25;;;;;;;15.12;66.37;100336.31;5067553;28;20025;-74
2021/05/23 06:41:38;;;;;;;9.52;1.70;;;;;;;15.29;65.66;100335.50;5062330;28;20039;-74
2021/05/23 06:44:04;;;;;;;9.25;1.75;;;;;;;15.34;65.28;100341.28;5063432;28;20028;-73
2021/05/23 06:46:29;;;;;;;8.05;2.20;;;;;;;15.43;64.26;100331.97;5060278;28;20035;-75
2021/05/23 06:48:55;;;;;;;7.85;1.45;;;;;;;15.72;63.36;100347.69;5063439;28;20024;-74
2021/05/23 06:51:20;;;;;;;6.93;1.60;;;;;;;15.85;62.04;100342.59;5064471;28;20050;-73
2021/05/23 06:53:49;;;;;;;5.93;1.10;;;;;;;15.97;62.89;100347.53;5060045;28;20036;-74
2021/05/23 06:56:15;;;;;;;9.15;1.40;;;;;;;16.18;61.15;100352.84;5067002;28;20017;-73
2021/05/23 06:58:43;;;;;;;7.15;1.40;;;;;;;16.12;59.73;100360.63;5066246;28;20512;-73
2021/05/23 07:01:09;;;;;;;4.85;1.17;;;;;;;16.18;61.95;100359.03;5058057;28;20401;-74
2021/05/23 07:03:36;;;;;;;5.60;1.63;;;;;;;16.29;60.75;100375.28;5059421;28;20048;-74
2021/05/23 07:06:02;;;;;;;8.80;1.50;;;;;;;15.95;61.09;100364.25;5070522;28;20027;-74
2021/05/23 07:08:28;;;;;;;7.00;1.50;;;;;;;15.80;59.75;100372.88;5046278;28;20353;-74
2021/05/23 07:10:53;;;;;;;6.13;1.48;;;;;;;16.15;60.15;100376.16;5068520;28;20039;-74
2021/05/23 07:13:23;;;;;;;5.20;1.27;;;;;;;16.02;59.41;100383.25;5070509;28;20040;-76
2021/05/23 07:15:50;;;;;;;9.32;1.20;;;;;;;16.12;59.37;100379.66;5057954;28;20032;-74
2021/05/23 07:18:16;;;;;;;9.27;1.98;;;;;;;16.13;57.65;100383.94;5063431;28;20033;-73
2021/05/23 07:20:41;;;;;;;5.95;1.58;;;;;;;16.10;58.87;100386.69;5058568;28;20032;-74
2021/05/23 07:23:07;;;;;;;8.63;1.60;;;;;;;16.21;59.13;100379.22;5053153;28;20055;-74
2021/05/23 07:25:33;;;;;;;9.43;1.33;;;;;;;16.24;59.62;100390.06;5070710;28;20056;-73
2021/05/23 07:27:59;;;;;;;8.68;1.52;;;;;;;16.41;60.19;100403.94;5065699;28;20033;-74
2021/05/23 07:30:26;;;;;;;7.78;1.63;;;;;;;16.14;59.16;100395.59;5040882;28;20044;-74
2021/05/23 07:32:51;;;;;;;8.93;1.38;;;;;;;16.37;58.74;100392.31;5051693;28;20582;-74
2021/05/23 07:35:17;;;;;;;10.50;1.50;;;;;;;16.47;59.42;100407.78;5070485;28;20054;-75
2021/05/23 07:37:43;;;;;;;4.05;1.30;;;;;;;16.61;57.16;100400.28;5060652;28;20025;-76
2021/05/23 07:40:09;;;;;;;7.30;1.13;;;;;;;16.53;57.10;100401.50;5065445;28;20033;-76
2021/05/23 07:42:35;;;;;;;10.27;2.05;;;;;;;16.54;58.08;100402.28;5064704;28;20100;-76
2021/05/23 07:45:00;;;;;;;8.13;1.83;;;;;;;16.60;59.00;100408.84;5051998;28;20087;-76
2021/05/23 07:47:26;;;;;;;7.97;1.35;;;;;;;16.67;56.81;100406.06;5055509;28;20558;-76
2021/05/23 07:49:51;;;;;;;10.57;1.60;;;;;;;16.92;56.90;100412.06;5064717;28;20028;-75
2021/05/23 07:52:17;;;;;;;7.07;1.33;;;;;;;17.07;57.11;100402.59;5066419;28;20029;-76
2021/05/23 07:54:42;;;;;;;7.38;1.30;;;;;;;17.31;55.61;100407.00;5059725;28;20050;-76
2021/05/23 07:57:08;;;;;;;10.27;1.30;;;;;;;17.31;55.09;100417.88;5056761;28;20194;-73
2021/05/23 07:59:34;;;;;;;5.68;1.10;;;;;;;17.55;54.41;100425.03;5060770;28;20050;-75
2021/05/23 08:02:00;;;;;;;7.70;1.08;;;;;;;17.21;53.79;100424.19;5057782;28;20108;-73
2021/05/23 08:04:26;;;;;;;7.00;1.20;;;;;;;16.73;54.75;100423.50;5053318;28;20068;-76
2021/05/23 08:06:54;;;;;;;5.15;0.95;;;;;;;17.16;55.90;100430.09;5059881;28;20454;-75
2021/05/23 08:09:21;;;;;;;7.28;1.30;;;;;;;17.50;55.46;100430.91;5047433;28;20036;-76
2021/05/23 08:11:46;;;;;;;6.72;1.30;;;;;;;17.71;53.79;100438.06;5055187;28;20044;-75
2021/05/23 08:14:13;;;;;;;2.78;1.20;;;;;;;17.88;53.06;100435.13;5064152;28;20401;-76
2021/05/23 08:16:39;;;;;;;6.80;1.23;;;;;;;17.72;52.87;100436.88;5052653;28;20429;-76
2021/05/23 08:19:04;;;;;;;4.72;1.20;;;;;;;17.46;53.61;100445.72;5054596;28;20135;-75
2021/05/23 08:21:31;;;;;;;2.47;1.00;;;;;;;17.44;53.62;100462.44;5065040;28;20519;-76
2021/05/23 08:23:56;;;;;;;4.60;1.20;;;;;;;17.58;53.54;100448.72;5056721;28;20111;-76
2021/05/23 08:26:22;;;;;;;6.10;1.23;;;;;;;17.77;52.35;100450.81;5047035;28;21767;-76
2021/05/23 08:28:47;;;;;;;11.07;1.50;;;;;;;18.23;52.99;100452.16;5052109;28;20511;-76
2021/05/23 08:31:13;;;;;;;6.32;1.17;;;;;;;18.16;52.74;100469.38;5056930;28;20059;-75
2021/05/23 08:33:39;;;;;;;6.75;1.38;;;;;;;18.18;53.41;100464.31;5054195;28;20123;-76
2021/05/23 08:36:05;;;;;;;7.90;1.27;;;;;;;18.13;53.09;100462.03;5057449;28;20374;-75
2021/05/23 08:38:30;;;;;;;5.47;1.30;;;;;;;17.47;53.30;100477.22;5056389;28;20043;-76
2021/05/23 08:40:56;;;;;;;7.43;1.00;;;;;;;17.69;53.28;100470.41;5058609;28;20033;-75
2021/05/23 08:43:25;;;;;;;6.07;1.10;;;;;;;17.04;54.37;100474.13;5056770;28;20082;-75
2021/05/23 08:45:51;;;;;;;10.52;1.38;;;;;;;17.02;56.00;100477.28;5018227;28;20029;-76
2021/05/23 08:48:19;;;;;;;3.47;0.93;;;;;;;17.21;54.69;100478.63;5050527;28;20037;-76
2021/05/23 08:50:45;;;;;;;4.28;1.17;;;;;;;17.62;55.29;100486.81;5057837;28;20031;-76
2021/05/23 08:53:11;;;;;;;7.03;1.23;;;;;;;18.08;54.50;100487.03;5053755;28;20501;-74
2021/05/23 08:55:38;;;;;;;5.50;1.05;;;;;;;18.11;53.05;100482.72;5052056;28;20078;-74
2021/05/23 08:58:04;;;;;;;4.32;0.80;;;;;;;18.80;52.24;100477.44;5053862;28;20045;-74
2021/05/23 09:00:30;;;;;;;5.70;1.20;;;;;;;19.22;50.49;100481.41;5055063;28;20053;-74
2021/05/23 09:03:00;;;;;;;7.80;1.10;;;;;;;19.30;50.34;100493.75;5056114;28;20100;-74
2021/05/23 09:05:38;;;;;;;8.93;1.15;;;;;;;19.71;49.04;100480.50;5059432;28;20033;-75
2021/05/23 09:08:12;;;;;;;4.68;1.50;;;;;;;19.92;49.06;100488.25;5054791;28;20041;-74
2021/05/23 09:10:38;;;;;;;3.80;1.13;;;;;;;20.03;48.13;100483.38;5047928;28;20400;-74
2021/05/23 09:13:04;;;;;;;4.28;0.98;;;;;;;19.63;48.76;100484.56;5072453;28;20480;-74
2021/05/23 09:15:30;;;;;;;5.63;1.20;;;;;;;19.20;49.43;100494.72;5071934;28;20119;-74
2021/05/23 09:18:18;;;;;;;3.75;1.13;;;;;;;18.64;49.54;100505.34;5070568;28;20143;-74
2021/05/23 09:20:44;;;;;;;7.05;1.00;;;;;;;18.22;50.07;100505.16;5051171;28;20091;-74
2021/05/23 09:23:18;;;;;;;7.57;1.20;;;;;;;18.19;51.46;100500.53;5066576;28;20021;-74
2021/05/23 09:25:44;;;;;;;5.00;0.93;;;;;;;18.25;51.39;100501.63;5061133;28;20057;-74
2021/05/23 09:28:10;;;;;;;4.88;1.05;;;;;;;18.16;50.90;100504.06;5053698;28;20508;-74
2021/05/23 09:30:37;;;;;;;6.97;1.05;;;;;;;18.16;51.08;100507.56;5054271;28;20037;-74
2021/05/23 09:33:05;;;;;;;7.85;1.13;;;;;;;17.95;51.52;100507.81;5067948;28;20450;-74
2021/05/23 09:35:31;;;;;;;5.30;1.00;;;;;;;17.77;52.76;100516.22;5063791;28;20098;-74
2021/05/23 09:38:05;;;;;;;3.83;1.00;;;;;;;17.72;52.86;100526.78;5054115;28;20040;-74
2021/05/23 09:40:42;;;;;;;5.57;1.45;;;;;;;17.47;52.85;100518.06;5059461;28;20037;-74
2021/05/23 09:43:15;;;;;;;6.22;1.52;;;;;;;17.52;52.92;100525.81;5058754;28;20060;-74
2021/05/23 09:45:53;;;;;;;3.85;1.02;;;;;;;17.19;52.92;100529.22;5054391;28;20662;-74
2021/05/23 09:48:28;;;;;;;2.45;0.80;;;;;;;16.95;54.00;100517.38;5065994;28;20033;-74
2021/05/23 09:50:55;;;;;;;6.68;1.08;;;;;;;17.05;55.81;100525.44;5055206;28;20037;-74
2021/05/23 09:53:31;;;;;;;3.42;0.90;;;;;;;17.10;55.94;100532.41;5043723;28;20032;-74
2021/05/23 09:56:05;;;;;;;3.97;0.90;;;;;;;17.25;55.14;100531.09;5054871;28;20118;-74
2021/05/23 09:58:34;;;;;;;5.38;1.10;;;;;;;17.03;55.82;100530.50;5051519;28;20036;-74
2021/05/23 10:01:00;;;;;;;8.90;1.10;;;;;;;16.95;55.27;100539.91;5043157;28;20020;-74
2021/05/23 10:03:30;;;;;;;1.77;0.70;;;;;;;17.13;54.98;100547.91;5058288;28;20423;-74
2021/05/23 10:05:58;;;;;;;2.92;1.02;;;;;;;17.08;55.88;100529.31;5053708;28;20041;-74
2021/05/23 10:08:24;;;;;;;3.88;1.20;;;;;;;17.32;55.10;100535.72;5058734;28;20075;-74
2021/05/23 10:10:50;;;;;;;7.50;1.20;;;;;;;17.40;55.66;100539.94;5046147;28;20451;-76
2021/05/23 10:13:17;;;;;;;3.15;1.15;;;;;;;17.28;54.04;100540.41;5056019;28;20630;-76
2021/05/23 10:15:43;;;;;;;5.38;1.00;;;;;;;17.40;55.24;100540.69;5054862;28;20033;-73
2021/05/23 10:18:10;;;;;;;4.90;1.35;;;;;;;17.45;54.25;100542.97;5060121;28;20119;-76
2021/05/23 10:20:36;;;;;;;4.30;1.20;;;;;;;17.54;54.53;100543.31;5052530;28;20029;-75
2021/05/23 10:23:14;;;;;;;5.28;1.00;;;;;;;17.47;54.64;100548.81;5047521;28;20527;-75
2021/05/23 10:25:46;;;;;;;4.05;1.15;;;;;;;17.29;56.85;100550.91;5056504;28;20424;-76
2021/05/23 10:28:12;;;;;;;8.70;1.20;;;;;;;17.68;56.96;100545.13;5063549;28;20067;-75
2021/05/23 10:30:55;;;;;;;3.95;1.20;;;;;;;18.12;53.99;100558.63;5062204;28;20036;-75
2021/05/23 10:33:23;;;;;;;2.83;0.90;;;;;;;18.03;54.96;100563.81;5063757;28;20035;-75
2021/05/23 10:35:50;;;;;;;7.38;1.10;;;;;;;18.32;53.21;100556.03;5061612;28;20051;-75
2021/05/23 10:38:20;;;;;;;4.85;1.08;;;;;;;18.41;52.48;100559.81;5059969;28;20029;-75
2021/05/23 10:41:02;;;;;;;5.93;0.90;;;;;;;18.35;52.34;100560.69;5069002;28;20032;-75
2021/05/23 10:43:31;;;;;;;4.82;1.10;;;;;;;17.99;52.18;100571.25;5052439;28;20032;-76
2021/05/23 10:46:08;;;;;;;5.45;0.98;;;;;;;17.98;52.19;100583.34;5068806;28;20115;-74
2021/05/23 10:48:34;;;;;;;4.30;1.08;;;;;;;17.61;52.15;100578.66;5047755;28;20032;-76
2021/05/23 10:51:10;;;;;;;4.82;0.95;;;;;;;18.04;52.46;100578.97;5052352;28;20033;-75
2021/05/23 10:53:36;;;;;;;2.58;0.90;;;;;;;18.51;52.02;100572.56;5063880;28;20036;-76
2021/05/23 10:56:02;;;;;;;3.63;1.00;;;;;;;18.56;52.62;100571.34;5067351;28;20039;-73
2021/05/23 10:58:29;;;;;;;3.78;0.88;;;;;;;18.72;51.49;100566.81;5064653;28;20123;-76
2021/05/23 11:00:58;;;;;;;3.17;1.10;;;;;;;18.77;50.87;100581.97;5062846;28;20086;-75
2021/05/23 11:03:28;;;;;;;2.28;0.70;;;;;;;18.52;50.27;100578.81;5061357;28;20514;-76
2021/05/23 11:06:04;;;;;;;2.95;1.00;;;;;;;18.55;52.08;100583.44;5050834;28;20029;-75
2021/05/23 11:08:35;;;;;;;4.88;0.80;;;;;;;19.04;51.48;100581.94;5044734;28;20131;-76
2021/05/23 11:11:01;;;;;;;5.88;0.80;;;;;;;19.48;50.71;100578.91;5062954;28;20031;-74
2021/05/23 11:13:29;;;;;;;5.82;0.98;;;;;;;19.67;49.74;100578.19;5063837;28;20048;-76
2021/05/23 11:15:54;;;;;;;6.57;0.93;;;;;;;19.84;50.52;100570.84;5044870;28;20107;-76
2021/05/23 11:18:21;;;;;;;3.80;0.70;;;;;;;19.83;49.56;100588.44;5063444;28;20943;-75
2021/05/23 11:21:00;;;;;;;4.03;1.20;;;;;;;19.99;47.37;100583.06;5065467;28;21259;-76
2021/05/23 11:23:27;;;;;;;4.35;1.13;;;;;;;19.85;48.29;100584.09;5058029;28;20044;-73
2021/05/23 11:26:25;;;;;;;4.75;1.00;;;;;;;19.29;47.14;100595.97;5054629;28;20032;-73